Time;durP1;ratioP1;P1;durP2;ratioP2;P2;SDS_P1;SDS_P2;PMS_P1;PMS_P2;Temp;Humidity;BMP_temperature;BMP_pressure;BME280_temperature;BME280_humidity;BME280_pressure;Samples;Min_cycle;Max_cycle;Signal;HPM_P1;HPM_P2
2022/09/01 00:01:41;;;;;;;6.40;1.42;;;14.80;99.90;;;;;;6187121;23;20017;-92
2022/09/01 00:04:08;;;;;;;3.95;1.60;;;14.80;99.90;;;;;;6160047;23;20425;-93
2022/09/01 00:06:35;;;;;;;4.38;1.63;;;14.80;99.90;;;;;;6160493;23;20017;-93
2022/09/01 00:09:07;;;;;;;4.47;1.40;;;14.80;99.90;;;;;;6159372;23;20028;-93
2022/09/01 00:11:34;;;;;;;4.30;1.52;;;14.70;99.90;;;;;;6159808;23;20032;-93
2022/09/01 00:14:01;;;;;;;4.20;1.40;;;14.70;99.90;;;;;;6160073;23;20077;-92
2022/09/01 00:16:29;;;;;;;3.05;1.70;;;14.60;99.90;;;;;;6186763;22;20100;-92
2022/09/01 00:18:55;;;;;;;3.50;1.55;;;14.70;99.90;;;;;;6186415;23;20021;-92
2022/09/01 00:21:33;;;;;;;2.13;1.15;;;14.70;99.90;;;;;;6186263;23;20024;-93
2022/09/01 00:24:05;;;;;;;2.95;1.20;;;14.70;99.90;;;;;;6159570;22;20040;-93
2022/09/01 00:26:30;;;;;;;3.10;1.10;;;14.60;99.90;;;;;;6159173;23;20017;-93
2022/09/01 00:28:56;;;;;;;4.55;1.50;;;14.60;99.90;;;;;;6159541;23;20086;-95
2022/09/01 00:31:25;;;;;;;2.35;1.00;;;14.60;99.90;;;;;;6186135;23;20028;-92
2022/09/01 00:33:54;;;;;;;5.63;1.80;;;14.60;99.90;;;;;;6185998;23;20017;-92
2022/09/01 00:36:21;;;;;;;2.00;1.00;;;14.60;99.90;;;;;;6185442;23;20027;-93
2022/09/01 00:38:52;;;;;;;4.85;1.00;;;14.60;99.90;;;;;;6185057;23;20076;-92
2022/09/01 00:41:20;;;;;;;4.15;1.10;;;14.60;99.90;;;;;;6134119;23;20021;-94
2022/09/01 00:43:49;;;;;;;4.75;1.00;;;14.50;99.90;;;;;;6185216;23;20577;-93
2022/09/01 00:46:24;;;;;;;3.55;1.15;;;14.40;99.90;;;;;;6185975;23;20023;-92
2022/09/01 00:48:55;;;;;;;3.45;0.90;;;14.50;99.90;;;;;;6161160;23;20013;-93
2022/09/01 00:51:28;;;;;;;4.07;0.90;;;14.50;99.90;;;;;;6176501;23;20044;-94
2022/09/01 00:53:54;;;;;;;3.05;0.98;;;14.50;99.90;;;;;;6166217;23;20503;-92
2022/09/01 00:56:21;;;;;;;1.58;0.77;;;14.40;99.90;;;;;;6160664;23;20068;-93
2022/09/01 00:58:50;;;;;;;1.83;0.75;;;14.40;99.90;;;;;;6185902;23;20032;-92
2022/09/01 01:01:19;;;;;;;2.25;0.85;;;14.40;99.90;;;;;;6186107;23;20056;-93
2022/09/01 01:03:46;;;;;;;1.95;0.80;;;14.40;99.90;;;;;;6158824;23;20131;-93
2022/09/01 01:06:15;;;;;;;3.28;0.82;;;14.30;99.90;;;;;;6159684;23;20017;-93
2022/09/01 01:09:00;;;;;;;3.08;0.90;;;14.30;99.90;;;;;;6185496;23;20028;-93
2022/09/01 01:11:31;;;;;;;2.08;1.00;;;14.30;99.90;;;;;;6155925;23;20064;-92
2022/09/01 01:14:16;;;;;;;3.25;0.93;;;14.20;99.90;;;;;;6130392;23;20449;-92
2022/09/01 01:16:43;;;;;;;;;;;14.20;99.90;;;;;;6155264;23;20041;-92
2022/09/01 01:23:04;;;;;;;1.90;1.00;;;14.20;99.90;;;;;;6156696;23;20022;-92
2022/09/01 01:25:43;;;;;;;4.60;0.90;;;14.20;99.90;;;;;;6130051;23;20421;-92
2022/09/01 01:28:25;;;;;;;1.27;0.73;;;14.10;99.90;;;;;;6105636;23;20021;-92
2022/09/01 01:31:00;;;;;;;2.67;0.73;;;14.10;99.90;;;;;;6129622;23;20018;-93
2022/09/01 01:33:40;;;;;;;2.45;0.85;;;14.10;99.90;;;;;;6156430;22;20028;-93
2022/09/01 01:36:13;;;;;;;2.90;0.88;;;14.10;99.90;;;;;;6156627;23;20020;-93
2022/09/01 01:38:46;;;;;;;1.88;0.90;;;14.00;99.90;;;;;;6156649;23;20036;-94
2022/09/01 01:41:13;;;;;;;4.25;1.25;;;14.00;99.90;;;;;;6156012;23;20018;-92
2022/09/01 01:43:40;;;;;;;3.33;0.90;;;14.00;99.90;;;;;;6156178;23;20100;-92
2022/09/01 01:46:08;;;;;;;3.72;0.80;;;14.00;99.90;;;;;;6156512;23;20476;-93
2022/09/01 01:48:38;;;;;;;1.52;0.77;;;13.90;99.90;;;;;;6157308;23;20055;-92
2022/09/01 01:51:04;;;;;;;2.05;0.98;;;13.90;99.90;;;;;;6130595;23;20059;-93
2022/09/01 01:53:36;;;;;;;2.60;0.80;;;13.90;99.90;;;;;;6130840;23;20076;-92
2022/09/01 01:56:05;;;;;;;1.85;0.80;;;13.90;99.90;;;;;;6157389;23;20058;-92
2022/09/01 01:58:37;;;;;;;3.25;1.08;;;13.80;99.90;;;;;;6157373;23;20020;-94
2022/09/01 02:01:05;;;;;;;2.80;0.90;;;13.80;99.90;;;;;;6131489;23;20029;-93
2022/09/01 02:03:38;;;;;;;4.10;1.10;;;13.80;99.90;;;;;;6130504;23;20688;-93
2022/09/01 02:06:10;;;;;;;2.25;0.98;;;13.80;99.90;;;;;;6157095;23;20018;-93
2022/09/01 02:08:38;;;;;;;6.38;1.13;;;13.80;99.90;;;;;;6156796;23;20073;-93
2022/09/01 02:11:06;;;;;;;3.08;1.10;;;13.70;99.90;;;;;;6184862;22;20021;-92
2022/09/01 02:13:32;;;;;;;3.33;1.02;;;13.70;99.90;;;;;;6161092;22;20025;-93
2022/09/01 02:16:15;;;;;;;2.70;1.08;;;13.70;99.90;;;;;;6186597;23;20484;-93
2022/09/01 02:18:48;;;;;;;2.22;0.90;;;13.70;99.90;;;;;;6186825;23;20096;-93
2022/09/01 02:21:19;;;;;;;3.45;1.40;;;13.80;99.90;;;;;;6187025;23;20017;-92
2022/09/01 02:23:59;;;;;;;1.95;0.95;;;13.70;99.90;;;;;;6186454;23;20110;-92
2022/09/01 02:26:30;;;;;;;2.67;1.23;;;13.70;99.90;;;;;;6186785;23;20024;-91
2022/09/01 02:29:19;;;;;;;2.17;1.10;;;13.70;99.90;;;;;;6160938;23;20024;-93
2022/09/01 02:31:49;;;;;;;2.78;1.08;;;13.70;99.90;;;;;;6186932;23;20013;-93
2022/09/01 02:34:16;;;;;;;2.47;1.10;;;13.70;99.90;;;;;;6187201;23;20032;-92
2022/09/01 02:36:48;;;;;;;1.55;0.90;;;13.70;99.90;;;;;;6187095;23;20024;-93
2022/09/01 02:39:21;;;;;;;3.28;1.00;;;13.70;99.90;;;;;;6160158;23;20025;-93
2022/09/01 02:41:46;;;;;;;3.17;1.23;;;13.70;99.90;;;;;;6187168;23;20035;-93
2022/09/01 02:44:20;;;;;;;2.50;1.10;;;13.70;99.90;;;;;;6186786;23;20096;-92
2022/09/01 02:46:49;;;;;;;1.77;0.80;;;13.70;99.90;;;;;;6186286;23;20017;-93
2022/09/01 02:49:24;;;;;;;3.58;1.23;;;13.80;99.90;;;;;;6186971;23;20013;-93
2022/09/01 02:51:56;;;;;;;3.80;1.10;;;13.70;99.90;;;;;;6161362;23;20073;-92
2022/09/01 02:54:24;;;;;;;2.78;1.15;;;13.70;99.90;;;;;;6160574;23;20013;-93
2022/09/01 02:56:53;;;;;;;2.58;1.10;;;13.70;99.90;;;;;;6160838;23;20059;-93
2022/09/01 02:59:26;;;;;;;4.63;1.10;;;13.70;99.90;;;;;;6160071;23;20017;-92
2022/09/01 03:01:52;;;;;;;4.18;1.15;;;13.70;99.90;;;;;;6160763;23;20090;-94
2022/09/01 03:04:19;;;;;;;3.85;1.25;;;13.80;99.90;;;;;;6160648;23;20013;-92
2022/09/01 03:06:45;;;;;;;2.85;1.20;;;13.80;99.90;;;;;;6134697;23;20029;-93
2022/09/01 03:09:14;;;;;;;4.47;1.00;;;13.80;99.90;;;;;;6160401;23;20053;-92
2022/09/01 03:11:46;;;;;;;3.25;1.13;;;13.80;99.90;;;;;;6135844;23;20017;-92
2022/09/01 03:14:17;;;;;;;3.95;1.25;;;13.80;99.90;;;;;;6161184;23;20052;-92
2022/09/01 03:16:43;;;;;;;2.40;1.17;;;13.80;99.90;;;;;;6187996;23;20017;-92
2022/09/01 03:19:10;;;;;;;2.63;0.93;;;13.80;99.90;;;;;;6186019;23;20310;-91
2022/09/01 03:21:39;;;;;;;2.33;1.10;;;13.80;99.90;;;;;;6160111;23;20464;-93
2022/09/01 03:24:07;;;;;;;2.65;1.13;;;13.80;99.90;;;;;;6186551;23;20017;-93
2022/09/01 03:26:35;;;;;;;2.25;0.90;;;13.80;99.90;;;;;;6186802;22;20479;-92
2022/09/01 03:29:03;;;;;;;2.60;1.05;;;13.80;99.90;;;;;;6160403;22;20028;-93
2022/09/01 03:31:29;;;;;;;3.80;1.20;;;13.80;99.90;;;;;;6159416;23;20471;-92
2022/09/01 03:33:56;;;;;;;1.58;0.93;;;13.70;99.90;;;;;;6159646;23;20758;-92
2022/09/01 03:36:27;;;;;;;3.75;1.13;;;13.70;99.90;;;;;;6159691;23;20021;-93
2022/09/01 03:38:54;;;;;;;3.45;1.10;;;13.70;99.90;;;;;;6160371;23;20014;-93
2022/09/01 03:41:23;;;;;;;2.25;1.10;;;13.60;99.90;;;;;;6160957;23;20017;-92
2022/09/01 03:43:53;;;;;;;3.30;1.50;;;13.60;99.90;;;;;;6159863;23;20029;-92
2022/09/01 03:46:20;;;;;;;2.53;1.13;;;13.60;99.90;;;;;;6159874;23;20074;-93
2022/09/01 03:48:54;;;;;;;3.72;1.10;;;13.60;99.90;;;;;;6186310;23;20040;-93
2022/09/01 03:51:22;;;;;;;2.83;1.30;;;13.50;99.90;;;;;;6160078;23;20096;-91
2022/09/01 03:53:48;;;;;;;3.25;1.40;;;13.50;99.90;;;;;;6159876;23;20021;-93
2022/09/01 03:56:16;;;;;;;2.30;1.17;;;13.50;99.90;;;;;;6160201;22;20013;-92
2022/09/01 03:58:46;;;;;;;3.70;1.45;;;13.40;99.90;;;;;;6135792;23;20097;-92
2022/09/01 04:01:11;;;;;;;2.67;1.20;;;13.40;99.90;;;;;;6160476;23;20361;-93
2022/09/01 04:03:39;;;;;;;2.83;1.08;;;13.40;99.90;;;;;;6159213;23;20021;-93
2022/09/01 04:06:09;;;;;;;2.55;1.30;;;13.30;99.90;;;;;;6159261;23;20017;-93
2022/09/01 04:08:35;;;;;;;3.17;1.45;;;13.30;99.90;;;;;;6159995;23;20025;-93
2022/09/01 04:11:08;;;;;;;2.88;1.50;;;13.30;99.90;;;;;;6159957;23;20098;-93
2022/09/01 04:13:48;;;;;;;2.93;1.30;;;13.80;99.90;;;;;;6159784;23;20024;-93
2022/09/01 04:19:18;;;;;;;3.20;1.35;;;13.20;99.90;;;;;;6186095;22;20025;-94
2022/09/01 04:21:53;;;;;;;2.90;1.40;;;13.20;99.90;;;;;;6134905;23;20016;-93
2022/09/01 04:24:19;;;;;;;3.78;1.60;;;13.20;99.90;;;;;;6135445;23;20009;-92
2022/09/01 04:26:48;;;;;;;3.30;1.38;;;13.10;99.90;;;;;;6159391;23;20021;-92
2022/09/01 04:29:17;;;;;;;3.15;1.45;;;13.10;99.90;;;;;;6135605;23;20028;-92
2022/09/01 04:31:51;;;;;;;5.05;2.15;;;13.10;99.90;;;;;;6159507;22;20025;-93
2022/09/01 04:34:17;;;;;;;;;;;13.10;99.90;;;;;;6134933;23;20093;-90
2022/09/01 04:36:44;;;;;;;3.78;1.63;;;13.10;99.90;;;;;;6158997;23;19920;-91
2022/09/01 04:39:12;;;;;;;3.67;1.70;;;13.00;99.90;;;;;;6131101;23;20322;-92
2022/09/01 04:41:40;;;;;;;5.10;1.73;;;13.00;99.90;;;;;;6179384;23;20065;-90
2022/09/01 04:44:07;;;;;;;4.40;1.50;;;13.00;99.90;;;;;;6159878;23;20021;-93
2022/09/01 04:46:36;;;;;;;4.75;1.90;;;13.00;99.90;;;;;;6161281;23;20441;-91
2022/09/01 04:49:09;;;;;;;3.85;1.70;;;13.00;99.90;;;;;;6159014;23;20393;-94
2022/09/01 04:51:45;;;;;;;3.67;1.77;;;12.90;99.90;;;;;;6187091;23;20013;-94
2022/09/01 04:54:15;;;;;;;3.83;1.40;;;12.90;99.90;;;;;;6135562;23;20093;-95
2022/09/01 04:56:45;;;;;;;3.35;1.70;;;12.90;99.90;;;;;;6160768;23;20513;-95
2022/09/01 04:59:12;;;;;;;4.20;1.80;;;12.90;99.90;;;;;;6160482;23;20013;-94
2022/09/01 05:01:45;;;;;;;4.43;1.60;;;13.00;99.90;;;;;;6184625;23;20051;-93
2022/09/01 05:04:23;;;;;;;4.28;1.58;;;12.80;99.90;;;;;;6184433;23;20013;-93
2022/09/01 05:06:58;;;;;;;3.42;1.55;;;12.80;99.90;;;;;;6185064;23;20017;-94
2022/09/01 05:09:24;;;;;;;4.00;1.67;;;12.70;99.90;;;;;;6158292;23;20480;-93
2022/09/01 05:11:51;;;;;;;5.68;1.85;;;12.80;99.90;;;;;;6184801;23;20318;-94
2022/09/01 05:14:20;;;;;;;4.45;1.98;;;12.80;99.90;;;;;;6158439;22;20036;-93
2022/09/01 05:16:46;;;;;;;5.50;1.92;;;12.80;99.90;;;;;;6157820;22;20029;-93
2022/09/01 05:19:16;;;;;;;3.97;1.98;;;12.90;99.90;;;;;;6133663;23;20500;-94
2022/09/01 05:21:46;;;;;;;4.75;1.95;;;12.80;99.90;;;;;;6157524;23;20040;-94
2022/09/01 05:24:20;;;;;;;4.45;2.30;;;12.80;99.90;;;;;;6157309;23;20024;-93
2022/09/01 05:26:49;;;;;;;4.13;1.88;;;12.80;99.90;;;;;;6184894;23;20032;-93
2022/09/01 05:29:16;;;;;;;4.38;1.80;;;12.80;99.90;;;;;;6159263;23;20021;-94
2022/09/01 05:31:44;;;;;;;3.63;1.88;;;12.80;99.90;;;;;;6159273;23;20020;-93
2022/09/01 05:34:18;;;;;;;4.38;1.70;;;12.80;99.90;;;;;;6135644;23;20021;-93
2022/09/01 05:36:49;;;;;;;5.65;1.88;;;12.90;99.90;;;;;;6135100;23;20040;-93
2022/09/01 05:39:15;;;;;;;4.13;2.25;;;12.80;99.90;;;;;;6186525;23;20028;-94
2022/09/01 05:41:41;;;;;;;5.28;2.47;;;12.90;99.90;;;;;;6159441;23;20018;-94
2022/09/01 05:44:08;;;;;;;6.82;2.28;;;12.90;99.90;;;;;;6185387;23;20025;-94
2022/09/01 05:46:36;;;;;;;4.65;2.25;;;12.90;99.90;;;;;;6158761;23;20036;-94
2022/09/01 05:49:05;;;;;;;4.57;1.80;;;12.90;99.90;;;;;;6186124;23;20097;-94
2022/09/01 05:51:33;;;;;;;6.43;2.13;;;12.90;99.90;;;;;;6160012;23;20024;-95
2022/09/01 05:53:59;;;;;;;5.88;2.15;;;13.00;99.90;;;;;;6160587;23;20014;-94
2022/09/01 05:56:26;;;;;;;5.18;1.88;;;13.00;99.90;;;;;;6136185;23;20025;-94
2022/09/01 05:58:53;;;;;;;4.88;2.15;;;13.10;99.90;;;;;;6187678;23;20044;-94
2022/09/01 06:01:23;;;;;;;7.00;2.20;;;13.20;99.90;;;;;;6140922;23;20017;-94
2022/09/01 06:03:55;;;;;;;5.72;1.90;;;13.20;99.90;;;;;;6138560;23;20023;-96
2022/09/01 06:06:36;;;;;;;8.10;2.03;;;13.30;99.90;;;;;;6134655;23;20468;-95
2022/09/01 06:09:16;;;;;;;4.65;2.13;;;13.30;99.90;;;;;;6161930;23;20009;-95
2022/09/01 06:11:46;;;;;;;5.35;2.50;;;13.40;99.90;;;;;;6163250;23;20029;-95
2022/09/01 06:14:24;;;;;;;4.32;2.20;;;13.40;99.90;;;;;;6186250;23;20041;-96
2022/09/01 06:16:53;;;;;;;7.80;2.20;;;13.70;99.90;;;;;;6189376;23;20032;-94
2022/09/01 06:19:19;;;;;;;5.78;2.70;;;13.30;99.90;;;;;;6184314;23;20013;-88
2022/09/01 06:21:47;;;;;;;5.80;2.63;;;13.30;99.90;;;;;;6159343;23;20021;-94
2022/09/01 06:24:13;;;;;;;4.22;2.08;;;13.30;99.90;;;;;;6185208;23;20381;-95
2022/09/01 06:26:39;;;;;;;5.30;2.08;;;13.40;99.90;;;;;;6185970;23;20017;-94
2022/09/01 06:29:08;;;;;;;6.85;2.65;;;13.40;99.90;;;;;;6157761;23;20116;-94
2022/09/01 06:31:38;;;;;;;3.85;1.88;;;14.30;99.90;;;;;;6153967;23;20017;-93
2022/09/01 06:34:05;;;;;;;6.43;2.22;;;13.60;99.90;;;;;;6154241;23;20205;-93
2022/09/01 06:36:31;;;;;;;7.82;2.35;;;13.70;99.90;;;;;;6180436;23;20105;-93
2022/09/01 06:38:59;;;;;;;6.00;2.40;;;13.80;99.90;;;;;;6128308;23;20021;-94
2022/09/01 06:41:25;;;;;;;4.82;2.20;;;14.00;99.90;;;;;;6152671;23;20100;-94
2022/09/01 06:43:52;;;;;;;5.18;2.33;;;14.10;99.90;;;;;;6150490;23;20048;-90
2022/09/01 06:46:22;;;;;;;8.07;2.28;;;14.20;99.90;;;;;;6152259;23;20024;-92
2022/09/01 06:48:49;;;;;;;5.55;2.08;;;14.20;99.90;;;;;;6177416;23;20093;-88
2022/09/01 06:51:19;;;;;;;4.88;2.50;;;14.30;99.90;;;;;;6125230;23;20018;-89
2022/09/01 06:53:49;;;;;;;5.15;2.75;;;14.30;99.90;;;;;;6150243;23;20097;-88
2022/09/01 06:56:17;;;;;;;4.65;2.30;;;14.30;99.90;;;;;;6150793;23;20159;-89
2022/09/01 06:58:47;;;;;;;5.68;2.35;;;14.40;99.90;;;;;;6150240;23;20088;-89
2022/09/01 07:01:14;;;;;;;4.97;2.20;;;14.40;99.90;;;;;;6151121;23;20013;-89
2022/09/01 07:03:41;;;;;;;6.85;3.03;;;14.50;99.90;;;;;;6150508;23;20023;-90
2022/09/01 07:06:08;;;;;;;6.25;2.58;;;14.50;99.90;;;;;;6150962;23;20049;-88
2022/09/01 07:08:38;;;;;;;5.25;2.42;;;14.60;99.90;;;;;;6150935;23;20017;-89
2022/09/01 07:11:14;;;;;;;5.55;2.50;;;14.60;99.90;;;;;;6176913;23;20089;-89
2022/09/01 07:13:41;;;;;;;5.03;2.05;;;14.70;99.90;;;;;;6176808;23;20016;-88
2022/09/01 07:16:08;;;;;;;6.03;2.47;;;14.80;99.90;;;;;;6177397;23;20028;-89
2022/09/01 07:18:34;;;;;;;6.65;2.40;;;14.80;99.90;;;;;;6176442;23;20010;-90
2022/09/01 07:21:01;;;;;;;5.95;2.50;;;14.90;99.90;;;;;;6177370;23;20386;-90
2022/09/01 07:23:28;;;;;;;7.13;2.42;;;15.00;99.90;;;;;;6151004;23;20021;-89
2022/09/01 07:25:56;;;;;;;4.70;2.08;;;15.10;99.90;;;;;;6177455;23;20433;-89
2022/09/01 07:28:22;;;;;;;6.78;2.22;;;15.30;99.90;;;;;;6150111;23;20027;-89
2022/09/01 07:30:51;;;;;;;6.80;2.15;;;15.30;99.90;;;;;;6177295;23;20017;-89
2022/09/01 07:33:23;;;;;;;6.45;2.35;;;15.40;99.90;;;;;;6150553;23;20082;-89
2022/09/01 07:35:52;;;;;;;6.82;2.33;;;15.30;99.90;;;;;;6126071;23;20014;-88
2022/09/01 07:38:18;;;;;;;8.05;2.35;;;15.40;99.90;;;;;;6150381;23;20028;-89
2022/09/01 07:40:44;;;;;;;4.45;1.67;;;15.40;99.90;;;;;;6150847;23;20013;-89
2022/09/01 07:43:30;;;;;;;5.38;2.17;;;15.40;99.90;;;;;;6254299;22;20453;-89
2022/09/01 07:45:58;;;;;;;5.00;2.00;;;15.50;99.90;;;;;;6177209;23;20346;-89
2022/09/01 07:48:26;;;;;;;6.78;2.13;;;15.60;99.90;;;;;;6150508;23;20021;-89
2022/09/01 07:50:55;;;;;;;5.28;2.08;;;15.50;99.90;;;;;;6177566;23;20032;-89
2022/09/01 07:53:30;;;;;;;4.95;1.63;;;15.50;99.90;;;;;;6126014;23;20017;-89
2022/09/01 07:55:56;;;;;;;;;;;15.50;99.90;;;;;;6151064;23;20112;-89
2022/09/01 07:58:25;;;;;;;7.38;2.20;;;15.60;99.90;;;;;;6149917;23;19959;-88
2022/09/01 08:00:52;;;;;;;7.80;2.90;;;15.60;99.90;;;;;;6177219;23;20326;-89
2022/09/01 08:03:21;;;;;;;3.83;1.70;;;15.70;99.90;;;;;;6150398;23;20025;-89
2022/09/01 08:05:50;;;;;;;6.47;1.95;;;15.70;99.90;;;;;;6177042;23;20028;-89
2022/09/01 08:08:15;;;;;;;5.50;1.90;;;16.00;99.90;;;;;;6177195;23;20025;-89
2022/09/01 08:10:43;;;;;;;4.68;1.73;;;15.80;99.90;;;;;;6149755;23;20072;-89
2022/09/01 08:13:09;;;;;;;9.57;1.90;;;15.90;99.90;;;;;;6176704;23;20461;-89
2022/09/01 08:15:37;;;;;;;6.85;1.67;;;15.90;99.90;;;;;;6177445;23;20052;-90
2022/09/01 08:18:03;;;;;;;4.28;1.80;;;16.00;99.90;;;;;;6176905;23;20020;-89
2022/09/01 08:20:29;;;;;;;4.97;1.80;;;16.00;99.90;;;;;;6176800;23;20091;-89
2022/09/01 08:22:55;;;;;;;8.45;1.85;;;16.40;99.90;;;;;;6176023;23;20028;-88
2022/09/01 08:25:22;;;;;;;4.25;1.67;;;16.20;99.90;;;;;;6176167;23;20027;-90
2022/09/01 08:27:47;;;;;;;4.68;1.55;;;16.30;99.90;;;;;;6176555;23;20070;-89
2022/09/01 08:30:13;;;;;;;7.13;1.60;;;16.40;99.90;;;;;;6150120;23;20021;-89
2022/09/01 08:32:42;;;;;;;7.97;1.83;;;16.50;99.90;;;;;;6173567;23;20360;-89
2022/09/01 08:35:11;;;;;;;4.93;1.58;;;16.60;99.90;;;;;;6150592;22;20052;-88
2022/09/01 08:37:37;;;;;;;6.40;1.65;;;16.80;99.90;;;;;;6176835;22;20497;-88
2022/09/01 08:40:05;;;;;;;5.00;1.42;;;16.90;99.90;;;;;;6149419;23;20088;-89
2022/09/01 08:42:49;;;;;;;4.80;1.70;;;17.00;99.90;;;;;;6176513;23;20445;-89
2022/09/01 08:45:37;;;;;;;7.70;2.03;;;17.10;99.90;;;;;;6176788;23;20049;-89
2022/09/01 08:48:21;;;;;;;7.30;1.60;;;17.20;99.90;;;;;;6125518;23;20017;-88
2022/09/01 08:50:54;;;;;;;4.15;1.23;;;17.40;99.90;;;;;;6150210;23;20099;-89
2022/09/01 08:53:19;;;;;;;13.43;1.80;;;17.50;99.90;;;;;;6149924;23;20408;-89
2022/09/01 08:55:50;;;;;;;6.30;1.55;;;17.60;99.90;;;;;;6124944;23;20017;-88
2022/09/01 08:58:17;;;;;;;3.90;1.48;;;17.80;99.90;;;;;;6176387;23;20500;-89
2022/09/01 09:00:47;;;;;;;5.25;1.35;;;17.90;99.90;;;;;;6149942;23;20118;-88
2022/09/01 09:03:34;;;;;;;3.63;1.08;;;18.10;99.90;;;;;;6149904;23;20096;-89
2022/09/01 09:06:22;;;;;;;2.45;0.90;;;18.30;99.90;;;;;;6176584;23;20070;-89
2022/09/01 09:09:02;;;;;;;3.55;0.90;;;18.40;99.90;;;;;;6176073;23;20021;-89
2022/09/01 09:11:50;;;;;;;4.18;1.20;;;18.60;99.90;;;;;;6150048;23;20017;-89
2022/09/01 09:14:53;;;;;;;4.55;1.13;;;18.70;99.90;;;;;;6176618;23;20028;-89
2022/09/01 09:17:24;;;;;;;3.97;0.80;;;18.90;99.90;;;;;;6149917;22;20028;-88
2022/09/01 09:19:50;;;;;;;4.47;0.70;;;19.00;99.90;;;;;;6150161;23;20106;-90
2022/09/01 09:22:18;;;;;;;4.97;1.05;;;19.10;99.90;;;;;;6176376;23;20021;-90
2022/09/01 09:24:51;;;;;;;5.13;1.02;;;19.40;99.90;;;;;;6176055;23;20009;-90
2022/09/01 09:27:26;;;;;;;5.18;0.80;;;19.50;99.90;;;;;;6176642;23;20017;-89
2022/09/01 09:30:15;;;;;;;2.53;0.90;;;19.60;99.90;;;;;;6176161;23;20017;-89
2022/09/01 09:33:06;;;;;;;3.50;1.02;;;19.80;99.90;;;;;;6176342;23;20025;-90
2022/09/01 09:35:42;;;;;;;2.53;0.80;;;20.00;99.90;;;;;;6175801;23;20028;-91
2022/09/01 09:38:17;;;;;;;4.20;0.80;;;20.20;99.90;;;;;;6149191;23;20025;-90
2022/09/01 09:41:06;;;;;;;1.75;0.63;;;20.30;99.90;;;;;;6176394;23;20372;-90
2022/09/01 09:44:03;;;;;;;2.67;0.75;;;20.40;99.50;;;;;;6177854;22;20044;-91
2022/09/01 09:46:31;;;;;;;1.88;0.50;;;20.60;99.00;;;;;;6176638;23;20021;-90
2022/09/01 09:49:23;;;;;;;2.53;0.80;;;20.60;98.80;;;;;;6126905;23;20021;-91
2022/09/01 09:52:08;;;;;;;3.60;0.57;;;20.80;98.60;;;;;;6177820;23;20039;-91
2022/09/01 09:54:37;;;;;;;2.08;0.60;;;20.90;98.90;;;;;;6150761;23;20017;-93
2022/09/01 09:57:14;;;;;;;2.08;0.70;;;21.10;98.50;;;;;;6177716;23;20029;-91
2022/09/01 09:59:53;;;;;;;1.80;0.50;;;21.20;97.50;;;;;;6151418;23;20067;-91
2022/09/01 10:02:34;;;;;;;1.52;0.70;;;21.40;97.30;;;;;;6151854;22;20070;-91
2022/09/01 10:05:20;;;;;;;3.85;0.63;;;21.50;97.10;;;;;;6126409;23;20457;-92
2022/09/01 10:07:45;;;;;;;4.68;0.70;;;21.60;96.70;;;;;;6150010;23;20025;-92
2022/09/01 10:10:30;;;;;;;2.50;0.82;;;21.70;96.40;;;;;;6175338;23;20065;-91
2022/09/01 10:12:57;;;;;;;5.05;0.80;;;21.80;95.70;;;;;;6176726;23;20032;-92
2022/09/01 10:15:27;;;;;;;0.88;0.40;;;22.00;95.50;;;;;;6150793;23;20029;-92
2022/09/01 10:17:57;;;;;;;6.78;0.85;;;22.30;95.10;;;;;;6177118;23;20013;-92
2022/09/01 10:20:25;;;;;;;1.75;0.45;;;22.20;95.00;;;;;;6150782;23;20093;-93
2022/09/01 10:22:51;;;;;;;2.85;0.60;;;22.40;94.50;;;;;;6150495;23;20056;-94
2022/09/01 10:25:31;;;;;;;1.60;0.50;;;22.50;94.30;;;;;;6178317;23;20021;-92
2022/09/01 10:28:18;;;;;;;4.22;0.70;;;22.70;92.90;;;;;;6151759;23;20047;-91
2022/09/01 10:30:46;;;;;;;1.33;0.57;;;22.70;92.90;;;;;;6127245;23;20437;-93
2022/09/01 10:33:15;;;;;;;2.72;0.50;;;22.70;92.90;;;;;;6126773;23;20490;-92
2022/09/01 10:35:47;;;;;;;4.03;0.60;;;22.80;92.10;;;;;;6177544;23;20017;-91
2022/09/01 10:38:20;;;;;;;2.58;0.68;;;22.50;92.30;;;;;;6126808;23;20095;-92
2022/09/01 10:41:05;;;;;;;5.55;0.77;;;22.50;91.80;;;;;;6126772;23;20021;-92
2022/09/01 10:43:48;;;;;;;2.25;0.47;;;22.50;91.30;;;;;;6151177;23;20054;-93
2022/09/01 10:46:19;;;;;;;2.75;0.55;;;22.70;90.10;;;;;;6151329;23;20013;-92
2022/09/01 10:48:51;;;;;;;1.77;0.47;;;22.70;90.70;;;;;;6177788;23;20021;-92
2022/09/01 10:51:17;;;;;;;2.53;0.43;;;22.70;90.20;;;;;;6125820;23;20013;-91
2022/09/01 10:53:56;;;;;;;2.10;0.50;;;22.70;90.90;;;;;;6125832;23;20060;-92
2022/09/01 10:56:46;;;;;;;1.90;0.57;;;22.90;90.00;;;;;;6126925;23;20023;-92
2022/09/01 10:59:21;;;;;;;3.33;0.60;;;23.00;89.80;;;;;;6177549;23;20476;-92
2022/09/01 11:01:47;;;;;;;2.95;0.50;;;22.90;90.10;;;;;;6150976;23;20424;-92
2022/09/01 11:04:15;;;;;;;1.67;0.30;;;22.90;90.40;;;;;;6177838;23;20056;-92
2022/09/01 11:06:41;;;;;;;3.55;0.82;;;22.90;90.40;;;;;;6176563;23;20017;-91
2022/09/01 11:09:26;;;;;;;2.72;0.60;;;22.50;90.10;;;;;;6176649;23;20023;-94
2022/09/01 11:12:19;;;;;;;2.88;0.55;;;22.60;88.00;;;;;;6152554;23;20532;-92
2022/09/01 11:14:54;;;;;;;2.75;0.50;;;22.40;89.90;;;;;;6153295;23;20103;-93
2022/09/01 11:17:30;;;;;;;1.70;0.60;;;22.40;90.20;;;;;;6156400;23;20453;-96
2022/09/01 11:20:14;;;;;;;1.30;0.40;;;22.40;90.10;;;;;;6150653;22;20027;-88
2022/09/01 11:22:56;;;;;;;3.95;0.68;;;22.40;90.30;;;;;;6178086;23;20024;-92
2022/09/01 11:26:20;;;;;;;3.70;0.63;;;22.40;89.90;;;;;;6126514;23;20029;-92
2022/09/01 11:28:46;;;;;;;4.22;0.60;;;22.60;88.70;;;;;;6184044;23;20020;-93
2022/09/01 11:31:25;;;;;;;2.15;0.40;;;22.80;89.20;;;;;;6183492;23;20341;-91
2022/09/01 11:34:11;;;;;;;1.10;0.50;;;23.00;85.40;;;;;;6183260;23;20397;-91
2022/09/01 11:36:46;;;;;;;2.22;0.50;;;23.00;85.00;;;;;;6158506;23;20020;-92
2022/09/01 11:39:17;;;;;;;3.63;0.55;;;23.00;87.00;;;;;;6158404;23;20027;-91
2022/09/01 11:41:51;;;;;;;2.40;0.70;;;23.20;86.00;;;;;;6183733;23;20024;-91
2022/09/01 11:44:39;;;;;;;4.40;0.55;;;23.30;86.80;;;;;;6208704;23;20551;-91
2022/09/01 11:47:10;;;;;;;1.25;0.40;;;23.30;85.50;;;;;;6183038;23;20024;-91
2022/09/01 11:49:39;;;;;;;2.88;0.70;;;23.40;87.60;;;;;;6208198;23;20021;-91
2022/09/01 11:52:05;;;;;;;2.80;0.60;;;23.60;84.70;;;;;;6208417;23;20095;-92
2022/09/01 11:54:40;;;;;;;1.42;0.50;;;23.60;84.80;;;;;;6208248;23;20058;-91
2022/09/01 11:57:28;;;;;;;2.75;0.50;;;23.50;83.50;;;;;;6182749;23;20024;-92
2022/09/01 11:59:56;;;;;;;2.00;0.70;;;23.50;83.10;;;;;;6157484;23;20021;-91
2022/09/01 12:02:34;;;;;;;1.70;0.40;;;23.60;85.50;;;;;;6150396;23;20438;-91
2022/09/01 12:05:01;;;;;;;1.83;0.50;;;23.80;85.20;;;;;;6150345;23;20021;-91
2022/09/01 12:07:47;;;;;;;2.42;0.60;;;23.80;84.90;;;;;;6125892;23;20021;-91
2022/09/01 12:10:20;;;;;;;1.30;0.50;;;23.70;83.20;;;;;;6125523;23;20020;-91
2022/09/01 12:12:46;;;;;;;1.75;0.50;;;23.70;84.40;;;;;;6126072;23;20028;-92
2022/09/01 12:15:24;;;;;;;1.40;0.50;;;23.70;85.20;;;;;;6126375;23;20417;-92
2022/09/01 12:17:51;;;;;;;3.90;0.40;;;23.90;82.70;;;;;;6125943;23;20017;-91
2022/09/01 12:20:34;;;;;;;4.05;0.57;;;23.90;83.70;;;;;;6176756;23;20051;-90
2022/09/01 12:23:01;;;;;;;2.15;0.50;;;23.90;83.40;;;;;;6176542;23;20021;-91
2022/09/01 12:25:33;;;;;;;3.10;0.60;;;23.80;83.80;;;;;;6176827;23;20054;-92
2022/09/01 12:28:04;;;;;;;3.65;0.63;;;23.80;84.00;;;;;;6150541;23;20021;-92
2022/09/01 12:30:34;;;;;;;2.53;0.50;;;23.80;83.20;;;;;;6150514;23;20059;-93
2022/09/01 12:33:04;;;;;;;4.10;0.50;;;23.90;84.00;;;;;;6176458;23;20025;-93
2022/09/01 12:35:29;;;;;;;3.38;0.52;;;23.90;83.80;;;;;;6176000;23;20017;-93
2022/09/01 12:38:21;;;;;;;5.38;0.57;;;23.80;83.50;;;;;;6149126;23;20023;-90
2022/09/01 12:40:51;;;;;;;3.20;0.63;;;23.70;82.60;;;;;;6125039;23;20021;-91
2022/09/01 12:43:38;;;;;;;2.72;1.00;;;23.60;83.70;;;;;;6125418;23;20028;-90
2022/09/01 12:46:09;;;;;;;3.03;0.77;;;23.70;82.50;;;;;;6124231;23;20021;-91
2022/09/01 12:48:37;;;;;;;2.55;0.60;;;23.80;83.60;;;;;;6150108;23;20443;-91
2022/09/01 12:51:15;;;;;;;3.78;0.50;;;23.80;82.70;;;;;;6124984;23;20062;-92
2022/09/01 12:53:54;;;;;;;2.35;0.55;;;23.80;81.20;;;;;;6125526;23;20070;-91
2022/09/01 12:56:37;;;;;;;1.40;0.40;;;23.80;81.50;;;;;;6150031;23;20399;-91
2022/09/01 12:59:19;;;;;;;2.80;0.52;;;23.80;82.80;;;;;;6125243;23;20060;-93
2022/09/01 13:01:45;;;;;;;3.38;0.70;;;23.70;82.00;;;;;;6149654;23;20096;-92
2022/09/01 13:04:26;;;;;;;2.35;0.60;;;23.80;83.20;;;;;;6176452;23;20415;-92
2022/09/01 13:06:55;;;;;;;2.90;0.85;;;24.00;81.70;;;;;;6150507;23;20075;-93
2022/09/01 13:09:21;;;;;;;2.67;0.47;;;24.30;82.40;;;;;;6151193;23;20096;-93
2022/09/01 13:11:47;;;;;;;2.53;0.40;;;24.40;81.20;;;;;;6125916;23;20021;-93
2022/09/01 13:14:14;;;;;;;2.47;0.57;;;24.60;81.20;;;;;;6150814;23;20433;-93
2022/09/01 13:16:40;;;;;;;3.03;0.90;;;24.40;80.40;;;;;;6151257;23;20017;-94
2022/09/01 13:19:06;;;;;;;3.25;0.40;;;24.50;80.90;;;;;;6178144;22;20048;-94